North Olmsted, OH (44070)

6:41 PM EST on February 08, 2016 (GMT -0500)
Kilroy Estates | | Change Station
CLOSE
Current Station
Personal Weather Station
Location: North Olmsted, OH
Elevation: 755 ft
Nearby Weather Stations

Elev 755 ft 41.44 °N, 81.88 °W | Updated 1 minute ago

Snow
Snow
32.4 °F
Feels Like 32 °F
N
0.0
Wind Variable Wind from SW

Today
High -- | Low -- °F
--% Chance of Precip.
Yesterday
High -- | Low -- °F
Precip. -- in
Pressure 29.62 in
Visibility 4.0 miles
Clouds Few 500 ft
Few 900 ft
Overcast 3300 ft
Windchill 32 °F
Dew Point 32 °F
Humidity 99%
Rainfall 0.43 in
Snow Depth Not available.
7:32 AM 5:52 PM
New Moon, 0% visible
SPECI KCLE 082330Z 23004KT 4SM -SN BR FEW005 FEW009 OVC033 01/M01 A2962 RMK AO2 P0001 T00061011
Pressure 29.62 in
Visibility 4.0 miles
Clouds Few 500 ft
Few 900 ft
Overcast 3300 ft
Windchill 32 °F
Dew Point 32 °F
Humidity 99%
Rainfall 0.43 in
Snow Depth Not available.
7:32 AM 5:52 PM
New Moon, 0% visible
SPECI KCLE 082330Z 23004KT 4SM -SN BR FEW005 FEW009 OVC033 01/M01 A2962 RMK AO2 P0001 T00061011

10-Day Weather Forecast

Almanac

Astronomy

Feb. 08, 2016 Rise Set
Actual Time
Civil Twilight
Nautical Twilight
Astronomical Twilight
Moon
Length of Visible Light
Length of Day
Tomorrow will be .
, % of the Moon is Illuminated

Today's Extremes

State Highs State Lows

Community

WunderPhotos

Upload Photos

1,891,527 photos uploaded!

WunderBlog® & News

Nearby

Air Quality

  Air Quality AQ Index Pollutant
Not available.

Snow Depth

Station Depth Elevation

Earthquake Activity

City Distance Mag. Time & Date
Minimum magnitude displayed is 2.5.

Coastal Water Temperatures

Place Temperature

Stations

Nearby Weather Stations

Station Location Temp. Windchill Dew Point Humidity Wind Precip. Elev Updated Type
                   

Watches & Warnings

There are currently no watches in effect.